Lokpriya Gopinath Bordoloi International Airport
VEGT : now visible

Airfield :











YOU CAN JOIN US ON...

 
LOGIN :

Register | Disclaimer

   EN    FR    IT 

 









Legend :    VFR   Marginal VFR   IFR   Intensive IFR   Very Intensive IFR
Visi :
Ceiling :
>= 8 km
>= 3000ft
5 to 8 km
1000 to 3000 ft
1500m to 5 km
500 to 1000 ft
800 to 1500m
200 to 500 ft
< 800m
< 200 ft
Symbols :   Thunderstorms  Fog  Heavy snow  Heavy precipitations  Wind > 20 kt






- Airport Elevation : 162 ft
- IATA code : GAU


VEGT - Lokpriya Gopinath Bordoloi International

CURRENT METAR :
  • 170130Z 32006KT 3000 BR SCT015 FEW025CB BKN090 29/28 Q1003 NOSIG

EXPIRED METARs :
  • 170100Z 04003KT 3000 -RA SCT015 FEW025CB BKN090 27/27 Q1002 NOSIG
  • 170030Z 11003KT 3000 -RA SCT015 FEW025CB BKN090 27/26 Q1003 NOSIG
  • 170000Z 06004KT 2500 -TSRA FEW010 SCT015 FEW025CB OVC080 28/27 Q1002 BECMG 3000 -TSRA
  • 162330Z 08007KT 2500 TSRA FEW010 SCT015 FEW025CB OVC080 28/27 Q1002 TEMPO 1500 TSRA
  • 162300Z 08004KT 2500 TSRA FEW010 SCT015 FEW025CB OVC080 28/27 Q1003 TEMPO 1500 TSRA
  • 162230Z 27009KT 2500 TSRA FEW010 SCT016 FEW025CB BKN090 27/27 Q1002 NOSIG
  • 162100Z 03008KT 2000 TSRA FEW010 SCT016 FEW025CB BKN090 28/28 Q1001 NOSIG

TAF TAF VEGT
Valid from the 17 at 00:00 until the 17 at 09:00 UTC


162300Z 1700/1709 00000KT 2500 -RA BR SCT016 FEW025CB BKN090
BECMG 1704/1706 27005KT 3500 -RA BR SCT018 BKN100
VECF FIR / Asia



MET'MAP, your aeronautical weather chart ! - Copyright ORBIFLY December 2007 - Disclaimer

ORBIFLY MET'MAP TEAM :

Programming & Development : Alexandra Zaïnal
Original concept : Baudouin d'Aumeries
Technical & hardware support : Manuel Goepfert
Assistance : Marc-Olivier Méhu




SOURCES & CREDITS :

   NOAA       Earth
Advisory